Tümü
Stapleford Aerodrome Airport (Romford, England) EGSG Hava Durumu
There is no TAF data available at EGSG. Showing TAF data for EGLC (11 mi GB).
LCY Terminal Alanı Tahmini (EGSG için veri yok)
| Date | Time (BST) | Flight Rules | Wind Dir. | Speed | Type | Height AGL (ft) | Visibility | Remarks | ||||||
|---|---|---|---|---|---|---|---|---|---|---|---|---|---|---|
There is no METAR data available at EGSG. Showing METAR data for EGLC (11 mi GB).
Yakın zamandaki LCY METAR geçmişi (EGSG verisi yok)
| Date | Time (BST) | Flight Rules | Wind Dir. | Speed | Type | Height AGL (ft) | Visibility | Temp (°C) | Temp (°F) | Dew Point (°C) | Dew Point (°F) | Rel. Humid. | Pressure | Density Altitude | Remarks |
|---|---|---|---|---|---|---|---|---|---|---|---|---|---|---|---|
| 02-May | 16:50 | VFR | 90° | 13 kt | 10000 meters | 21° | 69° | 11° | 51° | 53% | 1012 mb | 775 ft | |||
| 02-May | 16:20 | VFR | 140° | 9 kt | 10000 meters | 22° | 71° | 8° | 46° | 41% | 1013 mb | 865 ft | |||
| 02-May | 15:50 | VFR | 150° | 4 kt | 10000 meters | 23° | 73° | 8° | 46° | 38% | 1013 mb | 985 ft | |||
| 02-May | 15:20 | VFR | 220° | 5 kt | 10000 meters | 22° | 71° | 8° | 46° | 41% | 1014 mb | 836 ft | |||
| 02-May | 14:50 | VFR | 200° | 5 kt | 10000 meters | 22° | 71° | 8° | 46° | 41% | 1014 mb | 836 ft | |||
| 02-May | 14:20 | VFR | 190° | 6 kt | 10000 meters | 22° | 71° | 7° | 44° | 38% | 1015 mb | 806 ft | |||
| 02-May | 13:50 | VFR | 180° | 6 kt | 10000 meters | 22° | 71° | 7° | 44° | 38% | 1015 mb | 806 ft | |||
| 02-May | 13:20 | VFR | 190° | 3 kt | 10000 meters | 21° | 69° | 7° | 44° | 40% | 1015 mb | 686 ft | |||
| 02-May | 12:50 | VFR | Variable | 4 kt | 10000 meters | 21° | 69° | 7° | 44° | 40% | 1016 mb | 657 ft | |||
| 02-May | 12:20 | VFR | Variable | 2 kt | 10000 meters | 19° | 66° | 8° | 46° | 49% | 1016 mb | 417 ft | |||
| 02-May | 11:50 | VFR | 280° | 5 kt | 10000 meters | 19° | 66° | 8° | 46° | 49% | 1017 mb | 387 ft | |||
| 02-May | 11:20 | VFR | Variable | 3 kt | 10000 meters | 17° | 62° | 9° | 48° | 59% | 1017 mb | 147 ft | |||
| 02-May | 10:50 | VFR | 300° | 4 kt | 10000 meters | 17° | 62° | 9° | 48° | 59% | 1017 mb | 147 ft | |||
| 02-May | 10:20 | VFR | Variable | 2 kt | 10000 meters | 16° | 60° | 9° | 48° | 63% | 1017 mb | 27 ft | |||
| 02-May | 09:50 | VFR | 280° | 4 kt | 10000 meters | 15° | 59° | 10° | 50° | 72% | 1018 mb | -123 ft | |||
| 02-May | 09:20 | VFR | 210° | 5 kt | 10000 meters | 14° | 57° | 9° | 48° | 72% | 1018 mb | -243 ft | |||
| 02-May | 08:50 | VFR | 240° | 5 kt | 10000 meters | 13° | 55° | 9° | 48° | 77% | 1018 mb | -363 ft | |||
| 02-May | 08:20 | VFR | 230° | 5 kt | 10000 meters | 12° | 53° | 9° | 48° | 82% | 1018 mb | -483 ft | |||
| 02-May | 07:50 | VFR | 220° | 6 kt | 10000 meters | 11° | 51° | 9° | 48° | 87% | 1018 mb | -603 ft | |||
| 02-May | 07:20 | VFR | 240° | 5 kt | 10000 meters | 11° | 51° | 9° | 48° | 87% | 1018 mb | -603 ft | |||
| 02-May | 06:50 | VFR | 220° | 6 kt | 10000 meters |
11° | 51° | 9° | 48° | 87% | 1018 mb | -603 ft | |||
| 02-May | 06:20 | VFR | 250° | 6 kt | Scattered |
600 |
9000 meters |
11° | 51° | 9° | 48° | 87% | 1018 mb | -603 ft | |
| 02-May | 05:50 | VFR | 240° | 7 kt | 10000 meters | 11° | 51° | 9° | 48° | 87% | 1018 mb | -603 ft | |||
| 02-May | 05:20 | VFR | 230° | 7 kt | 10000 meters | 11° | 51° | 9° | 48° | 87% | 1018 mb | -603 ft |
Giriş
| Tarayıcınız desteklenmiyor. tarayıcınızı yükseltin |
